Time;durP1;ratioP1;P1;durP2;ratioP2;P2;SDS_P1;SDS_P2;PMS_P1;PMS_P2;Temp;Humidity;BMP_temperature;BMP_pressure;BME280_temperature;BME280_humidity;BME280_pressure;Samples;Min_cycle;Max_cycle;Signal;HPM_P1;HPM_P2
2022/06/05 00:02:34;;;;;;;4.27;2.57;;;19.50;98.00;;;;;;5033525;28;20459;-68
2022/06/05 00:05:09;;;;;;;9.43;3.20;;;19.60;98.00;;;;;;5033619;28;20458;-69
2022/06/05 00:07:44;;;;;;;3.90;2.57;;;19.80;98.00;;;;;;5033392;28;20454;-69
2022/06/05 00:10:18;;;;;;;4.97;2.80;;;19.90;98.00;;;;;;5033472;28;20556;-69
2022/06/05 00:12:52;;;;;;;3.70;2.30;;;19.80;98.00;;;;;;5033136;28;20462;-68
2022/06/05 00:15:20;;;;;;;3.60;2.43;;;19.80;98.00;;;;;;5033517;28;20549;-68
2022/06/05 00:17:47;;;;;;;2.87;2.33;;;19.60;98.00;;;;;;5033336;28;20459;-68
2022/06/05 00:20:15;;;;;;;3.37;2.53;;;19.70;98.00;;;;;;5033225;28;20458;-68
2022/06/05 00:22:42;;;;;;;4.00;2.43;;;19.70;98.00;;;;;;5033478;28;20454;-69
2022/06/05 00:25:10;;;;;;;4.07;2.60;;;19.70;98.00;;;;;;5033059;28;20484;-69
2022/06/05 00:27:48;;;;;;;3.07;2.53;;;19.80;98.00;;;;;;5032981;28;20663;-70
2022/06/05 00:30:21;;;;;;;2.80;2.13;;;19.70;98.00;;;;;;5032906;28;20505;-68
2022/06/05 00:32:52;;;;;;;3.00;2.73;;;19.50;98.00;;;;;;5032790;28;20850;-69
2022/06/05 00:35:21;;;;;;;2.37;2.20;;;19.40;98.00;;;;;;5033036;28;20506;-70
2022/06/05 00:37:59;;;;;;;4.97;2.67;;;19.30;98.00;;;;;;5032969;28;20454;-70
2022/06/05 00:40:33;;;;;;;3.77;2.33;;;19.50;98.00;;;;;;5033084;28;20781;-70
2022/06/05 00:43:04;;;;;;;2.37;2.23;;;19.50;98.00;;;;;;5033011;28;20468;-70
2022/06/05 00:45:32;;;;;;;3.50;2.90;;;19.50;98.00;;;;;;5033120;28;20461;-70
2022/06/05 00:48:01;;;;;;;2.77;2.10;;;19.60;98.00;;;;;;5032369;28;20457;-70
2022/06/05 00:50:30;;;;;;;3.60;2.60;;;19.70;98.00;;;;;;5032698;28;20482;-70
2022/06/05 00:53:00;;;;;;;3.17;2.37;;;19.70;98.00;;;;;;5032419;28;20455;-70
2022/06/05 00:55:29;;;;;;;5.43;3.00;;;19.60;98.00;;;;;;5032703;28;20812;-71
2022/06/05 00:57:59;;;;;;;3.70;2.33;;;19.60;98.00;;;;;;5032347;28;20469;-70
2022/06/05 01:00:32;;;;;;;3.73;2.53;;;19.60;98.00;;;;;;5032104;28;20465;-70
2022/06/05 01:03:02;;;;;;;3.67;2.50;;;19.60;98.00;;;;;;5032250;28;20466;-70
2022/06/05 01:05:30;;;;;;;3.10;2.60;;;19.60;98.00;;;;;;5032470;28;20459;-70
2022/06/05 01:07:59;;;;;;;5.47;2.90;;;19.70;98.00;;;;;;5032267;28;20455;-70
2022/06/05 01:10:36;;;;;;;3.67;2.70;;;19.70;98.00;;;;;;5032281;28;20463;-70
2022/06/05 01:13:13;;;;;;;4.93;3.00;;;19.60;98.00;;;;;;5032271;28;20462;-70
2022/06/05 01:15:52;;;;;;;4.40;2.63;;;19.50;98.00;;;;;;5032479;28;20541;-70
2022/06/05 01:18:31;;;;;;;4.50;2.50;;;19.40;98.00;;;;;;5032155;28;20960;-70
2022/06/05 01:21:13;;;;;;;3.17;2.57;;;19.50;98.00;;;;;;5032412;28;20454;-70
2022/06/05 01:23:54;;;;;;;3.67;2.87;;;19.40;98.00;;;;;;5014597;28;20498;-70
2022/06/05 01:26:29;;;;;;;2.70;2.43;;;19.50;98.00;;;;;;5032317;28;20462;-70
2022/06/05 01:29:02;;;;;;;4.83;2.60;;;19.60;98.00;;;;;;5032225;28;20461;-70
2022/06/05 01:31:32;;;;;;;3.83;2.57;;;19.70;98.00;;;;;;5032140;28;20486;-70
2022/06/05 01:34:11;;;;;;;4.37;2.50;;;19.70;98.00;;;;;;5032177;28;20462;-70
2022/06/05 01:36:49;;;;;;;2.80;2.27;;;19.60;98.00;;;;;;5032386;28;20458;-70
2022/06/05 01:39:21;;;;;;;2.83;2.20;;;19.50;98.00;;;;;;5032396;28;20463;-70
2022/06/05 01:41:55;;;;;;;4.50;2.87;;;19.50;98.00;;;;;;5032064;28;20443;-70
2022/06/05 01:44:28;;;;;;;4.37;2.87;;;19.30;98.00;;;;;;5031963;28;20490;-70
2022/06/05 01:46:58;;;;;;;4.27;2.40;;;19.20;98.00;;;;;;5031738;28;20469;-70
2022/06/05 01:49:28;;;;;;;3.87;2.87;;;19.00;98.00;;;;;;5031873;28;20462;-70
2022/06/05 01:52:01;;;;;;;3.20;2.43;;;19.10;98.00;;;;;;5031435;28;20976;-70
2022/06/05 01:54:37;;;;;;;3.40;2.77;;;19.00;98.00;;;;;;5031828;28;20548;-70
2022/06/05 01:57:09;;;;;;;6.67;3.23;;;18.90;98.00;;;;;;5031738;28;20458;-70
2022/06/05 01:59:41;;;;;;;6.23;2.60;;;18.80;98.00;;;;;;5031713;28;20461;-70
2022/06/05 02:02:12;;;;;;;4.97;3.10;;;18.80;98.00;;;;;;5030168;28;20458;-70
2022/06/05 02:04:45;;;;;;;3.97;2.60;;;18.70;98.00;;;;;;5031753;28;20864;-70
2022/06/05 02:07:17;;;;;;;3.10;2.30;;;18.70;98.00;;;;;;5031407;28;20461;-70
2022/06/05 02:09:49;;;;;;;5.43;2.33;;;18.60;98.00;;;;;;5031630;28;20513;-70
2022/06/05 02:12:17;;;;;;;3.40;2.27;;;18.70;98.00;;;;;;5031623;28;20976;-70
2022/06/05 02:14:45;;;;;;;4.13;2.63;;;18.90;98.00;;;;;;5014103;28;20516;-70
2022/06/05 02:17:12;;;;;;;3.33;2.50;;;18.80;98.00;;;;;;5032537;28;20454;-70
2022/06/05 02:19:40;;;;;;;3.50;2.20;;;18.80;98.00;;;;;;5035469;28;20462;-70
2022/06/05 02:22:13;;;;;;;4.60;2.43;;;18.80;98.00;;;;;;5035554;28;20490;-70
2022/06/05 02:24:40;;;;;;;4.73;2.60;;;18.60;98.00;;;;;;5018070;28;20458;-70
2022/06/05 02:27:08;;;;;;;5.47;2.60;;;18.50;98.00;;;;;;5035400;28;20967;-70
2022/06/05 02:29:37;;;;;;;3.00;2.43;;;18.40;98.00;;;;;;5035520;28;20458;-70
2022/06/05 02:32:32;;;;;;;5.17;3.00;;;18.40;98.00;;;;;;5035185;28;20490;-70
2022/06/05 02:35:09;;;;;;;4.40;2.50;;;18.30;98.00;;;;;;5035561;28;20474;-70
2022/06/05 02:37:54;;;;;;;3.50;2.33;;;18.30;98.00;;;;;;5035416;28;20986;-70
2022/06/05 02:40:30;;;;;;;4.57;3.17;;;18.30;98.00;;;;;;5035290;28;21151;-70
2022/06/05 02:43:07;;;;;;;4.43;2.70;;;18.20;98.00;;;;;;5034876;28;20458;-70
2022/06/05 02:45:51;;;;;;;2.70;2.47;;;18.10;98.00;;;;;;5035134;28;20637;-70
2022/06/05 02:48:26;;;;;;;5.40;3.27;;;18.10;98.00;;;;;;5034839;28;20539;-70
2022/06/05 02:50:58;;;;;;;2.73;2.30;;;18.00;98.00;;;;;;5034635;28;20447;-70
2022/06/05 02:53:26;;;;;;;4.00;2.77;;;18.00;98.00;;;;;;5034938;28;20462;-70
2022/06/05 02:55:55;;;;;;;3.07;1.93;;;18.00;98.00;;;;;;5034560;28;20542;-70
2022/06/05 02:58:22;;;;;;;4.43;3.10;;;18.00;98.00;;;;;;5034724;28;20821;-70
2022/06/05 03:03:41;;;;;;;5.20;2.83;;;18.10;98.00;;;;;;4996082;28;20539;-70
2022/06/05 03:06:09;;;;;;;3.33;2.33;;;18.20;98.00;;;;;;5034586;28;20469;-70
2022/06/05 03:08:36;;;;;;;4.40;3.00;;;18.20;98.00;;;;;;5034488;28;20455;-70
2022/06/05 03:11:03;;;;;;;3.70;2.60;;;18.20;98.00;;;;;;5016884;28;20466;-70
2022/06/05 03:13:31;;;;;;;3.67;2.63;;;18.20;98.00;;;;;;5034415;28;20530;-70
2022/06/05 03:15:59;;;;;;;3.60;2.83;;;18.20;98.00;;;;;;5016914;28;20451;-70
2022/06/05 03:18:27;;;;;;;5.67;2.70;;;18.20;98.00;;;;;;5034554;28;20520;-70
2022/06/05 03:20:57;;;;;;;2.70;2.03;;;18.20;98.00;;;;;;5034008;28;20450;-70
2022/06/05 03:23:25;;;;;;;4.27;2.40;;;18.10;98.00;;;;;;5034469;28;20881;-70
2022/06/05 03:25:53;;;;;;;3.73;2.67;;;18.20;98.00;;;;;;5034267;28;20474;-70
2022/06/05 03:28:20;;;;;;;4.13;2.57;;;18.40;98.00;;;;;;5033532;28;20462;-70
2022/06/05 03:30:47;;;;;;;4.60;2.80;;;18.60;98.00;;;;;;5033888;28;20478;-70
2022/06/05 03:33:17;;;;;;;3.77;2.60;;;18.70;98.00;;;;;;5033834;28;20988;-70
2022/06/05 03:35:48;;;;;;;4.20;2.93;;;18.60;98.00;;;;;;5034428;28;20868;-70
2022/06/05 03:38:16;;;;;;;2.80;2.47;;;18.70;98.00;;;;;;5034428;28;20462;-70
2022/06/05 03:40:44;;;;;;;4.20;3.20;;;18.90;98.00;;;;;;5033829;28;20872;-70
2022/06/05 03:43:12;;;;;;;4.67;2.93;;;18.90;98.00;;;;;;5034105;28;20463;-70
2022/06/05 03:45:39;;;;;;;3.23;2.70;;;18.90;98.00;;;;;;5033802;28;20458;-70
2022/06/05 03:48:08;;;;;;;3.50;2.47;;;19.00;98.00;;;;;;5033654;28;20965;-70
2022/06/05 03:50:38;;;;;;;5.63;2.90;;;19.00;98.00;;;;;;5033835;28;20548;-70
2022/06/05 03:53:06;;;;;;;4.53;3.57;;;18.90;98.00;;;;;;5033582;28;20482;-70
2022/06/05 03:55:33;;;;;;;3.93;3.03;;;18.80;98.00;;;;;;5033726;28;20458;-70
2022/06/05 03:58:00;;;;;;;4.33;3.00;;;18.70;98.00;;;;;;5033437;28;20465;-70
2022/06/05 04:00:28;;;;;;;3.20;2.13;;;18.60;98.00;;;;;;5033591;28;20466;-70
2022/06/05 04:02:55;;;;;;;4.30;2.40;;;18.60;98.00;;;;;;5033490;28;20466;-70
2022/06/05 04:05:22;;;;;;;4.40;2.70;;;18.60;98.00;;;;;;5033503;28;20462;-70
2022/06/05 04:07:51;;;;;;;3.20;2.40;;;18.60;98.00;;;;;;5033407;28;20451;-70
2022/06/05 04:10:19;;;;;;;3.03;2.30;;;18.60;98.00;;;;;;5033405;28;20458;-70
2022/06/05 04:12:47;;;;;;;4.00;2.87;;;18.50;98.00;;;;;;5033285;28;20482;-70
2022/06/05 04:15:15;;;;;;;4.47;3.10;;;18.60;98.00;;;;;;5033319;28;20521;-70
2022/06/05 04:17:42;;;;;;;18.27;3.00;;;18.50;98.00;;;;;;5033156;28;20974;-70
2022/06/05 04:20:11;;;;;;;4.77;3.20;;;18.50;98.00;;;;;;5033245;28;20451;-70
2022/06/05 04:22:40;;;;;;;5.40;2.93;;;18.50;98.00;;;;;;5033151;28;20462;-70
2022/06/05 04:25:13;;;;;;;4.50;2.73;;;18.50;98.00;;;;;;5033273;28;20848;-70
2022/06/05 04:27:41;;;;;;;3.90;2.70;;;18.70;98.00;;;;;;5033071;28;20496;-70
2022/06/05 04:30:09;;;;;;;4.27;2.60;;;18.70;98.00;;;;;;5015462;28;20463;-70
2022/06/05 04:32:36;;;;;;;4.60;2.97;;;18.60;98.00;;;;;;5033074;28;20864;-70
2022/06/05 04:35:03;;;;;;;3.70;2.70;;;18.60;98.00;;;;;;5033041;28;20451;-70
2022/06/05 04:37:30;;;;;;;5.73;2.97;;;18.60;98.00;;;;;;5032791;28;20459;-70
2022/06/05 04:39:57;;;;;;;4.70;3.00;;;18.60;98.00;;;;;;5032521;28;20458;-70
2022/06/05 04:42:26;;;;;;;3.03;2.50;;;18.60;98.00;;;;;;5032674;28;20457;-70
2022/06/05 04:45:01;;;;;;;3.43;2.90;;;18.60;98.00;;;;;;5032627;28;20458;-70
2022/06/05 04:47:28;;;;;;;4.60;2.67;;;18.50;98.00;;;;;;5032743;28;21107;-70
2022/06/05 04:49:55;;;;;;;3.97;2.90;;;18.50;98.00;;;;;;5032632;28;20476;-70
2022/06/05 04:52:23;;;;;;;5.47;3.13;;;18.60;98.00;;;;;;5032766;28;20479;-70
2022/06/05 04:54:50;;;;;;;4.17;2.40;;;18.80;98.00;;;;;;5032455;28;20451;-70
2022/06/05 04:57:17;;;;;;;7.13;2.90;;;18.90;98.00;;;;;;5032592;28;20455;-70
2022/06/05 04:59:45;;;;;;;5.40;2.97;;;18.80;98.00;;;;;;5032534;28;20462;-70
2022/06/05 05:02:12;;;;;;;4.37;2.83;;;18.70;98.00;;;;;;5032405;28;20836;-70
2022/06/05 05:04:39;;;;;;;5.83;2.90;;;18.60;98.00;;;;;;5032234;28;20454;-70
2022/06/05 05:07:20;;;;;;;3.13;2.80;;;18.50;98.00;;;;;;5031759;28;20455;-70
2022/06/05 05:09:47;;;;;;;3.53;2.53;;;18.40;98.00;;;;;;5031648;28;20463;-70
2022/06/05 05:12:15;;;;;;;5.27;2.90;;;18.50;98.00;;;;;;5014086;28;20486;-70
2022/06/05 05:14:43;;;;;;;4.90;2.40;;;18.60;98.00;;;;;;5031628;28;20465;-70
2022/06/05 05:17:11;;;;;;;3.07;2.20;;;18.70;98.00;;;;;;5031444;28;20451;-70
2022/06/05 05:19:38;;;;;;;3.60;2.47;;;18.70;98.00;;;;;;5031535;28;20465;-70
2022/06/05 05:22:06;;;;;;;3.90;2.60;;;18.80;98.00;;;;;;5031684;28;20455;-70
2022/06/05 05:24:33;;;;;;;4.30;2.33;;;18.80;98.00;;;;;;5014932;28;20454;-70
2022/06/05 05:27:01;;;;;;;3.67;2.57;;;18.90;98.00;;;;;;5032515;28;20792;-70
2022/06/05 05:29:28;;;;;;;5.50;2.80;;;19.00;98.00;;;;;;5032476;28;20465;-70
2022/06/05 05:31:55;;;;;;;3.90;2.50;;;19.00;98.00;;;;;;5032039;28;20482;-70
2022/06/05 05:34:24;;;;;;;5.23;3.10;;;18.90;98.00;;;;;;5031861;28;20463;-70
2022/06/05 05:36:51;;;;;;;4.00;2.73;;;18.80;98.00;;;;;;5031903;28;20454;-70
2022/06/05 05:42:07;;;;;;;3.87;2.70;;;18.70;98.00;;;;;;5031979;28;20442;-70
2022/06/05 05:44:37;;;;;;;4.03;2.37;;;18.60;98.00;;;;;;5031925;28;20467;-70
2022/06/05 05:47:06;;;;;;;3.77;2.60;;;18.60;98.00;;;;;;5031817;28;20464;-70
2022/06/05 05:49:34;;;;;;;5.40;2.93;;;18.60;98.00;;;;;;5031884;28;20458;-70
2022/06/05 05:52:02;;;;;;;6.37;3.43;;;18.60;98.00;;;;;;5014488;28;21007;-70
2022/06/05 05:54:29;;;;;;;4.30;2.80;;;18.70;98.00;;;;;;5036016;28;20447;-70
2022/06/05 05:56:56;;;;;;;4.37;3.30;;;18.80;98.00;;;;;;5036086;28;20451;-70
2022/06/05 05:59:23;;;;;;;5.10;3.10;;;18.80;98.00;;;;;;5035857;28;20455;-70
2022/06/05 06:01:50;;;;;;;3.50;2.80;;;18.60;98.00;;;;;;5035818;28;20459;-70
2022/06/05 06:04:18;;;;;;;3.20;2.77;;;18.40;98.00;;;;;;5036174;28;20458;-70
2022/06/05 06:06:49;;;;;;;4.43;3.23;;;18.30;98.00;;;;;;5035653;28;20459;-71
2022/06/05 06:09:16;;;;;;;5.47;3.13;;;18.30;98.00;;;;;;5036076;28;20511;-71
2022/06/05 06:11:43;;;;;;;4.60;3.30;;;18.30;98.00;;;;;;5035575;28;20454;-71
2022/06/05 06:14:10;;;;;;;3.03;2.30;;;18.30;98.00;;;;;;5035977;28;20458;-71
2022/06/05 06:16:37;;;;;;;5.00;3.17;;;18.30;98.00;;;;;;5035568;28;20462;-71
2022/06/05 06:19:05;;;;;;;5.50;3.97;;;18.20;98.00;;;;;;5035638;28;20818;-71
2022/06/05 06:21:33;;;;;;;4.43;2.77;;;18.30;98.00;;;;;;5035696;28;20482;-71
2022/06/05 06:24:01;;;;;;;6.97;3.03;;;18.30;98.00;;;;;;5035407;28;20462;-71
2022/06/05 06:26:29;;;;;;;5.60;3.70;;;18.30;98.00;;;;;;5035732;28;20455;-71
2022/06/05 06:28:56;;;;;;;2.70;2.40;;;18.30;98.00;;;;;;5018124;28;20458;-71
2022/06/05 06:31:23;;;;;;;4.10;2.87;;;18.30;98.00;;;;;;5035300;28;20466;-71
2022/06/05 06:33:51;;;;;;;4.17;3.00;;;18.40;98.00;;;;;;5034923;28;20493;-71
2022/06/05 06:36:19;;;;;;;3.07;2.53;;;18.30;98.00;;;;;;5035068;28;20453;-71
2022/06/05 06:38:47;;;;;;;6.50;2.93;;;18.40;98.00;;;;;;5034975;28;20803;-71
2022/06/05 06:41:18;;;;;;;4.20;3.13;;;18.30;98.00;;;;;;5035230;28;20451;-71
2022/06/05 06:43:49;;;;;;;3.33;2.93;;;18.20;98.00;;;;;;5034868;28;20797;-71
2022/06/05 06:46:18;;;;;;;4.43;3.10;;;18.20;98.00;;;;;;5035120;28;20447;-71
2022/06/05 06:48:45;;;;;;;5.27;3.23;;;18.30;98.00;;;;;;5034737;28;20450;-70
2022/06/05 06:51:13;;;;;;;4.70;3.33;;;18.30;98.00;;;;;;5034898;28;20450;-69
2022/06/05 06:53:42;;;;;;;4.80;3.50;;;18.30;98.00;;;;;;5026076;28;20488;-70
2022/06/05 06:56:10;;;;;;;3.83;2.60;;;18.30;98.00;;;;;;5015262;28;20954;-70
2022/06/05 06:58:39;;;;;;;4.90;2.97;;;18.30;98.00;;;;;;4997787;28;20451;-70
2022/06/05 07:01:06;;;;;;;6.20;3.00;;;18.40;98.00;;;;;;5014858;28;20459;-70
2022/06/05 07:03:34;;;;;;;4.00;2.83;;;18.30;98.00;;;;;;4997043;28;20463;-69
2022/06/05 07:06:02;;;;;;;3.20;2.67;;;18.20;98.00;;;;;;5014735;28;20458;-70
2022/06/05 07:08:29;;;;;;;3.73;2.87;;;18.20;98.00;;;;;;5014849;28;20456;-70
2022/06/05 07:10:56;;;;;;;3.20;3.00;;;18.10;98.00;;;;;;5014695;28;20464;-70
2022/06/05 07:13:23;;;;;;;3.10;2.20;;;18.20;98.00;;;;;;5014831;28;20513;-72
2022/06/05 07:15:52;;;;;;;2.17;1.83;;;18.20;98.00;;;;;;5014874;28;20460;-71
2022/06/05 07:18:20;;;;;;;2.77;2.00;;;18.20;98.00;;;;;;5015004;28;20462;-72
2022/06/05 07:20:47;;;;;;;2.43;1.70;;;18.20;98.00;;;;;;5014884;28;20459;-71
2022/06/05 07:23:14;;;;;;;3.30;2.80;;;18.20;98.00;;;;;;5014727;28;20459;-71
2022/06/05 07:25:47;;;;;;;3.83;2.47;;;18.20;98.00;;;;;;5014538;28;20456;-70
2022/06/05 07:28:14;;;;;;;2.90;2.13;;;18.10;98.00;;;;;;4996964;28;20460;-71
2022/06/05 07:30:41;;;;;;;3.67;2.30;;;18.10;98.00;;;;;;5014064;28;20526;-71
2022/06/05 07:33:10;;;;;;;2.73;2.23;;;18.10;98.00;;;;;;5013455;28;20480;-71
2022/06/05 07:35:37;;;;;;;1.87;1.80;;;18.10;98.00;;;;;;5013685;28;20452;-71
2022/06/05 07:38:05;;;;;;;3.63;2.57;;;18.10;98.00;;;;;;5013392;28;20879;-71
2022/06/05 07:40:33;;;;;;;2.80;1.83;;;18.10;98.00;;;;;;5013496;28;20487;-71
2022/06/05 07:43:01;;;;;;;2.13;1.97;;;18.10;98.00;;;;;;5013605;28;20452;-71
2022/06/05 07:45:28;;;;;;;3.50;2.30;;;18.10;98.00;;;;;;5013753;28;20451;-72
2022/06/05 07:47:55;;;;;;;4.60;3.10;;;18.10;98.00;;;;;;5013382;28;20463;-71
2022/06/05 07:50:24;;;;;;;4.60;2.90;;;18.10;98.00;;;;;;5013355;28;20460;-72
2022/06/05 07:55:35;;;;;;;3.13;2.13;;;18.10;98.00;;;;;;5013344;28;20494;-71
2022/06/05 07:58:02;;;;;;;3.00;2.03;;;18.00;98.00;;;;;;5013026;28;20486;-71
2022/06/05 08:00:30;;;;;;;2.33;1.70;;;18.00;98.00;;;;;;5013310;28;20451;-72
2022/06/05 08:02:57;;;;;;;3.57;2.47;;;17.90;98.00;;;;;;4995903;28;20463;-71
2022/06/05 08:05:26;;;;;;;1.93;1.60;;;17.90;98.00;;;;;;5012939;28;20455;-71
2022/06/05 08:07:53;;;;;;;2.03;1.80;;;17.90;98.00;;;;;;5012786;28;20989;-71
2022/06/05 08:10:20;;;;;;;2.33;1.80;;;17.90;98.00;;;;;;5013050;28;20447;-71
2022/06/05 08:12:49;;;;;;;3.63;1.60;;;18.00;98.00;;;;;;5012759;28;20627;-71
2022/06/05 08:15:17;;;;;;;2.27;1.80;;;18.10;98.00;;;;;;5012242;28;20459;-72
2022/06/05 08:17:44;;;;;;;2.87;2.13;;;18.20;98.00;;;;;;5012694;28;20531;-70
2022/06/05 08:20:17;;;;;;;1.97;1.60;;;18.30;98.00;;;;;;5012945;28;21045;-72
2022/06/05 08:22:45;;;;;;;1.77;1.70;;;18.40;98.00;;;;;;5012783;28;20530;-72
2022/06/05 08:25:14;;;;;;;2.50;2.00;;;18.40;98.00;;;;;;5010832;28;20866;-73
2022/06/05 08:27:41;;;;;;;3.43;2.20;;;18.50;98.00;;;;;;5009572;28;20467;-72
2022/06/05 08:30:09;;;;;;;4.47;2.63;;;18.70;98.00;;;;;;5010016;28;20455;-73
2022/06/05 08:32:36;;;;;;;2.50;1.73;;;18.80;98.00;;;;;;5009772;28;20482;-73
2022/06/05 08:35:03;;;;;;;1.73;1.43;;;19.00;98.00;;;;;;5009427;28;20475;-73
2022/06/05 08:43:36;;;;;;;1.67;1.57;;;19.60;98.00;;;;;;5009642;28;20582;-73
2022/06/05 08:46:10;;;;;;;1.77;1.40;;;19.80;98.00;;;;;;5009841;28;20452;-72
2022/06/05 08:48:41;;;;;;;2.70;1.97;;;19.90;98.00;;;;;;4992004;28;20459;-73
2022/06/05 08:51:22;;;;;;;2.60;2.00;;;20.10;98.00;;;;;;5007781;28;20830;-73
2022/06/05 08:53:54;;;;;;;1.63;1.43;;;20.30;98.00;;;;;;5009404;28;20866;-74
2022/06/05 08:56:33;;;;;;;2.33;1.63;;;20.50;98.00;;;;;;5009704;28;20474;-73
2022/06/05 08:59:05;;;;;;;2.30;1.73;;;20.60;98.00;;;;;;5009172;28;20495;-74
2022/06/05 09:01:39;;;;;;;2.43;1.90;;;20.80;98.00;;;;;;5009428;28;20457;-74
2022/06/05 09:04:28;;;;;;;1.57;1.57;;;20.90;98.00;;;;;;5009361;28;20459;-73
2022/06/05 09:06:59;;;;;;;1.63;1.60;;;21.00;98.00;;;;;;5006057;28;20464;-73
2022/06/05 09:09:30;;;;;;;1.97;1.53;;;21.10;98.00;;;;;;5011098;28;20452;-73
2022/06/05 09:12:07;;;;;;;2.57;2.03;;;21.00;98.00;;;;;;5009226;28;20463;-72
2022/06/05 09:14:42;;;;;;;1.50;1.50;;;21.10;98.00;;;;;;5001776;28;20495;-74
2022/06/05 09:17:12;;;;;;;2.80;2.10;;;21.10;98.00;;;;;;4996041;28;21011;-74
2022/06/05 09:19:41;;;;;;;2.53;2.03;;;21.10;98.00;;;;;;5009251;28;20470;-73
2022/06/05 09:22:16;;;;;;;2.83;1.90;;;21.20;98.00;;;;;;5009269;28;20477;-72
2022/06/05 09:25:00;;;;;;;3.33;2.10;;;21.30;98.00;;;;;;5010620;28;20553;-74
2022/06/05 09:27:41;;;;;;;2.13;1.70;;;21.30;98.00;;;;;;5009239;28;20467;-73
2022/06/05 09:30:16;;;;;;;1.67;1.53;;;21.40;98.00;;;;;;5013835;28;20470;-73
2022/06/05 09:33:10;;;;;;;2.50;1.70;;;21.60;98.00;;;;;;5010095;28;20472;-72
2022/06/05 09:35:45;;;;;;;2.70;2.00;;;21.90;98.00;;;;;;5010601;28;20474;-69
2022/06/05 09:38:17;;;;;;;2.73;1.77;;;22.10;98.00;;;;;;5009404;28;20489;-72
2022/06/05 09:40:56;;;;;;;1.83;1.63;;;22.10;98.00;;;;;;5010053;28;20988;-73
2022/06/05 09:43:38;;;;;;;1.90;1.50;;;22.20;98.00;;;;;;5004690;28;21014;-72
2022/06/05 09:46:22;;;;;;;1.60;1.43;;;22.30;98.00;;;;;;5004586;28;20487;-73
2022/06/05 09:48:54;;;;;;;3.10;1.93;;;22.10;98.00;;;;;;5010090;28;20456;-72
2022/06/05 09:51:21;;;;;;;2.23;1.70;;;22.20;98.00;;;;;;4999508;28;20452;-68
2022/06/05 09:54:02;;;;;;;1.83;1.40;;;22.20;98.00;;;;;;5009092;28;20483;-73
2022/06/05 09:58:24;;;;;;;1.93;1.70;;;22.10;98.00;;;;;;4992210;28;20466;-74
2022/06/05 09:59:38;;;;;;;1.77;1.50;;;22.00;98.00;;;;;;5009147;28;20543;-73
2022/06/05 10:02:09;;;;;;;3.10;2.37;;;21.90;98.00;;;;;;5008843;28;20495;-73
2022/06/05 10:04:38;;;;;;;2.43;1.57;;;21.80;98.00;;;;;;5008761;28;20460;-73
2022/06/05 10:07:14;;;;;;;1.63;1.53;;;21.80;98.00;;;;;;5008626;28;20551;-73
2022/06/05 10:09:45;;;;;;;1.60;1.50;;;21.70;98.00;;;;;;5008494;28;20495;-73
2022/06/05 10:12:22;;;;;;;2.00;1.60;;;21.70;98.00;;;;;;5008462;28;20471;-72
2022/06/05 10:14:58;;;;;;;2.00;1.67;;;21.60;98.00;;;;;;5008959;28;20491;-73
2022/06/05 10:17:45;;;;;;;1.77;1.50;;;21.70;98.00;;;;;;5008886;28;20466;-72
2022/06/05 10:20:47;;;;;;;1.97;1.53;;;21.80;98.00;;;;;;5008815;28;20486;-74
2022/06/05 10:23:42;;;;;;;2.53;1.50;;;21.80;98.00;;;;;;5008655;28;20872;-74
2022/06/05 10:26:25;;;;;;;1.47;1.20;;;21.80;98.00;;;;;;4983637;28;20518;-74
2022/06/05 10:29:07;;;;;;;1.70;1.47;;;21.80;98.00;;;;;;5008736;28;20463;-73
2022/06/05 10:31:39;;;;;;;2.00;1.57;;;21.80;98.00;;;;;;5008608;28;20466;-73
2022/06/05 10:34:16;;;;;;;1.30;1.30;;;21.80;98.00;;;;;;4990686;28;20887;-73
2022/06/05 10:36:55;;;;;;;1.90;1.53;;;21.80;98.00;;;;;;5008515;28;20466;-75
2022/06/05 10:39:28;;;;;;;1.40;1.30;;;21.90;98.00;;;;;;5010879;28;20464;-73
2022/06/05 10:42:17;;;;;;;1.97;1.50;;;22.00;98.00;;;;;;5011991;28;20482;-74
2022/06/05 10:44:58;;;;;;;1.70;1.40;;;22.10;98.00;;;;;;5004218;28;20984;-74
2022/06/05 10:47:36;;;;;;;1.40;1.40;;;22.20;98.00;;;;;;5012007;28;20452;-73
2022/06/05 10:50:10;;;;;;;1.73;1.40;;;22.30;98.00;;;;;;5009383;28;20473;-74
2022/06/05 10:52:44;;;;;;;1.50;1.40;;;22.30;98.00;;;;;;5011730;28;20459;-75
2022/06/05 10:55:29;;;;;;;2.20;1.40;;;22.30;98.00;;;;;;5012011;28;20495;-73
2022/06/05 10:58:05;;;;;;;2.10;1.60;;;22.30;98.00;;;;;;5011544;28;20456;-73
2022/06/05 11:00:39;;;;;;;1.33;1.20;;;22.40;98.00;;;;;;5011913;28;20917;-73
2022/06/05 11:03:20;;;;;;;1.90;1.50;;;22.30;98.00;;;;;;5011907;28;20459;-74
2022/06/05 11:06:14;;;;;;;1.73;1.30;;;22.30;98.00;;;;;;5004400;28;20529;-73
2022/06/05 11:08:51;;;;;;;1.97;1.50;;;22.30;98.00;;;;;;5011224;28;20477;-73
2022/06/05 11:14:17;;;;;;;1.50;1.40;;;22.00;98.00;;;;;;4996979;28;20946;-73
2022/06/05 11:16:52;;;;;;;1.50;1.40;;;21.90;98.00;;;;;;5011579;28;20459;-73
2022/06/05 11:19:37;;;;;;;1.53;1.30;;;21.80;98.00;;;;;;5003502;28;20467;-73
2022/06/05 11:22:11;;;;;;;2.83;1.97;;;21.60;98.00;;;;;;5010888;28;20979;-73
2022/06/05 11:24:45;;;;;;;2.07;1.70;;;21.50;98.00;;;;;;5011559;28;20459;-65
2022/06/05 11:27:21;;;;;;;1.77;1.70;;;21.30;98.00;;;;;;4978196;28;20455;-65
2022/06/05 11:29:54;;;;;;;3.10;1.87;;;21.30;98.00;;;;;;5012104;28;21164;-65
2022/06/05 11:32:28;;;;;;;1.93;1.50;;;21.40;98.00;;;;;;5012269;28;20495;-65
2022/06/05 11:35:09;;;;;;;1.80;1.67;;;21.30;98.00;;;;;;5013118;28;20552;-75
2022/06/05 11:37:54;;;;;;;1.67;1.53;;;21.20;98.00;;;;;;5011653;28;20463;-74
2022/06/05 11:40:43;;;;;;;2.13;1.40;;;21.00;98.00;;;;;;5011726;28;20996;-73
2022/06/05 11:43:30;;;;;;;1.63;1.50;;;20.90;98.00;;;;;;5011377;28;20534;-74
2022/06/05 11:46:06;;;;;;;1.80;1.70;;;20.80;98.00;;;;;;5011468;28;20467;-75
2022/06/05 11:48:38;;;;;;;2.07;1.63;;;20.70;98.00;;;;;;5011359;28;20463;-73
2022/06/05 11:51:14;;;;;;;1.53;1.47;;;20.50;98.00;;;;;;5007813;28;20463;-75
2022/06/05 11:53:50;;;;;;;2.87;1.87;;;20.50;98.00;;;;;;5011176;28;20984;-73
2022/06/05 11:56:33;;;;;;;4.63;1.37;;;20.50;98.00;;;;;;5010968;28;20455;-77
2022/06/05 11:59:13;;;;;;;3.10;2.20;;;20.50;98.00;;;;;;5010974;28;20597;-75
2022/06/05 12:01:46;;;;;;;2.77;1.83;;;20.40;98.00;;;;;;5011267;28;20467;-73
2022/06/05 12:04:20;;;;;;;2.20;1.67;;;20.30;98.00;;;;;;5011001;28;20463;-73
2022/06/05 12:06:52;;;;;;;1.70;1.23;;;20.40;98.00;;;;;;5011290;28;20475;-74
2022/06/05 12:09:22;;;;;;;2.23;1.60;;;20.50;98.00;;;;;;5011064;28;20459;-74
2022/06/05 12:11:56;;;;;;;1.57;1.40;;;20.50;98.00;;;;;;5010710;28;20783;-74
2022/06/05 12:14:30;;;;;;;1.40;1.33;;;20.60;98.00;;;;;;5010814;28;20491;-74
2022/06/05 12:17:08;;;;;;;2.03;1.27;;;20.70;98.00;;;;;;5011004;28;20834;-74
2022/06/05 12:19:54;;;;;;;2.23;1.70;;;20.70;98.00;;;;;;5011490;28;20468;-73
2022/06/05 12:22:31;;;;;;;1.67;1.50;;;20.80;98.00;;;;;;5010801;28;20824;-74
2022/06/05 12:25:05;;;;;;;1.70;1.30;;;20.90;98.00;;;;;;5010979;28;21115;-74
2022/06/05 12:27:52;;;;;;;2.53;1.37;;;20.90;98.00;;;;;;5010678;28;20567;-73
2022/06/05 12:30:24;;;;;;;2.00;1.40;;;21.20;98.00;;;;;;5010965;28;20495;-73
2022/06/05 12:32:57;;;;;;;5.60;1.60;;;21.30;98.00;;;;;;5015785;28;20459;-73
2022/06/05 12:35:28;;;;;;;2.00;1.60;;;21.50;98.00;;;;;;4994935;28;20491;-73
2022/06/05 12:38:16;;;;;;;1.73;1.50;;;21.70;98.00;;;;;;5010450;28;20542;-73
2022/06/05 12:40:51;;;;;;;1.33;1.30;;;21.90;98.00;;;;;;5008530;28;20455;-73
2022/06/05 12:43:26;;;;;;;2.97;1.43;;;22.40;98.00;;;;;;5010154;28;20466;-73
2022/06/05 12:45:59;;;;;;;1.40;1.30;;;22.70;98.00;;;;;;5010117;28;20459;-72
2022/06/05 12:48:29;;;;;;;1.60;1.40;;;22.90;98.00;;;;;;5010147;28;21135;-74
2022/06/05 12:51:01;;;;;;;2.43;1.60;;;22.90;98.00;;;;;;5009314;28;20518;-73
2022/06/05 12:53:36;;;;;;;1.30;1.10;;;22.90;98.00;;;;;;5012880;28;20463;-71
2022/06/05 12:56:16;;;;;;;1.40;1.30;;;22.90;98.00;;;;;;5012605;28;20483;-75
2022/06/05 12:58:55;;;;;;;1.50;1.40;;;23.00;98.00;;;;;;5012631;28;20475;-74
2022/06/05 13:01:27;;;;;;;1.90;1.60;;;23.20;98.00;;;;;;5012530;28;20525;-73
2022/06/05 13:04:00;;;;;;;1.50;1.43;;;23.30;98.00;;;;;;5012728;28;20461;-72
2022/06/05 13:06:47;;;;;;;2.03;1.70;;;23.70;98.00;;;;;;5012810;28;20538;-72
2022/06/05 13:09:25;;;;;;;2.20;1.80;;;24.10;98.00;;;;;;5012713;28;20522;-73
2022/06/05 13:11:57;;;;;;;1.47;1.37;;;24.40;98.00;;;;;;5012623;28;20471;-75
2022/06/05 13:14:41;;;;;;;2.10;1.50;;;24.70;98.00;;;;;;5012164;28;21052;-73
2022/06/05 13:17:20;;;;;;;1.60;1.40;;;24.80;98.00;;;;;;5009066;28;20463;-73
2022/06/05 13:19:53;;;;;;;2.00;1.57;;;24.80;98.00;;;;;;5012162;28;20481;-75
2022/06/05 13:22:27;;;;;;;2.13;1.50;;;24.80;98.00;;;;;;5011408;28;20486;-74
2022/06/05 13:25:03;;;;;;;1.40;1.30;;;24.70;98.00;;;;;;5011944;28;20467;-75
2022/06/05 13:27:46;;;;;;;1.90;1.40;;;24.60;98.00;;;;;;5011920;28;20832;-74
2022/06/05 13:30:17;;;;;;;1.30;1.30;;;24.40;98.00;;;;;;5012057;28;20467;-75
2022/06/05 13:32:55;;;;;;;1.73;1.50;;;24.40;98.00;;;;;;5011575;28;20478;-74